createdAt,value
2018-12-26T00:00:52.977Z,58.86
2018-12-26T00:03:25.812Z,59.35
2018-12-26T00:05:57.186Z,59.22
2018-12-26T00:08:28.581Z,59.60
2018-12-26T00:11:02.791Z,59.47
2018-12-26T00:13:35.119Z,60.02
2018-12-26T00:16:06.249Z,59.67
2018-12-26T00:18:37.695Z,59.69
2018-12-26T00:21:12.664Z,59.74
2018-12-26T00:23:43.976Z,59.68
2018-12-26T00:26:16.967Z,59.39
2018-12-26T00:28:49.884Z,59.94
2018-12-26T00:31:22.676Z,59.54
2018-12-26T00:33:53.934Z,59.60
2018-12-26T00:36:27.018Z,59.98
2018-12-26T00:38:58.279Z,59.94
2018-12-26T00:41:34.312Z,60.00
2018-12-26T00:44:08.751Z,60.43
2018-12-26T00:46:39.997Z,59.94
2018-12-26T00:49:11.267Z,59.93
2018-12-26T00:51:43.928Z,60.10
2018-12-26T00:54:15.163Z,60.50
2018-12-26T00:56:46.459Z,60.85
2018-12-26T00:59:18.539Z,60.81
2018-12-26T01:01:51.392Z,60.93
2018-12-26T01:04:22.756Z,61.25
2018-12-26T01:06:55.994Z,61.47
2018-12-26T01:09:26.823Z,61.03
2018-12-26T01:11:58.046Z,61.39
2018-12-26T01:14:29.247Z,61.90
2018-12-26T01:17:00.488Z,61.63
2018-12-26T01:19:33.617Z,61.79
2018-12-26T01:22:05.860Z,61.94
2018-12-26T01:24:38.682Z,62.34
2018-12-26T01:27:09.929Z,62.53
2018-12-26T01:29:42.362Z,62.52
2018-12-26T01:32:13.456Z,62.32
2018-12-26T01:34:46.711Z,62.67
2018-12-26T01:37:19.573Z,62.80
2018-12-26T01:39:52.720Z,63.06
2018-12-26T01:42:25.901Z,62.53
2018-12-26T01:44:57.105Z,63.39
2018-12-26T01:47:30.061Z,63.09
2018-12-26T01:50:01.441Z,63.21
2018-12-26T01:52:36.892Z,63.22
2018-12-26T01:55:08.363Z,63.67
2018-12-26T01:57:39.422Z,63.47
2018-12-26T02:00:12.560Z,63.55
2018-12-26T02:02:46.135Z,63.62
2018-12-26T02:05:17.301Z,63.68
2018-12-26T02:07:52.157Z,63.87
2018-12-26T02:10:25.586Z,63.17
2018-12-26T02:12:58.242Z,63.88
2018-12-26T02:15:29.443Z,63.95
2018-12-26T02:18:00.763Z,63.90
2018-12-26T02:20:33.487Z,64.27
2018-12-26T02:23:04.836Z,65.03
2018-12-26T02:25:38.486Z,64.51
2018-12-26T02:28:11.396Z,64.33
2018-12-26T02:30:44.018Z,64.56
2018-12-26T02:33:15.161Z,64.65
2018-12-26T02:35:47.367Z,64.68
2018-12-26T02:38:20.026Z,64.72
2018-12-26T02:40:51.549Z,64.80
2018-12-26T02:43:22.701Z,64.56
2018-12-26T02:45:53.874Z,64.71
2018-12-26T02:48:27.920Z,64.72
2018-12-26T02:51:00.931Z,64.48
2018-12-26T02:53:45.105Z,64.73
2018-12-26T02:56:12.526Z,64.89
2018-12-26T02:58:46.610Z,65.25
2018-12-26T03:01:19.348Z,64.88
2018-12-26T03:03:54.987Z,65.27
2018-12-26T03:06:29.268Z,64.84
2018-12-26T03:09:01.789Z,65.50
2018-12-26T03:11:34.161Z,65.43
2018-12-26T03:14:08.971Z,64.83
2018-12-26T03:16:43.833Z,64.43
2018-12-26T03:19:15.178Z,65.19
2018-12-26T03:21:47.397Z,64.70
2018-12-26T03:24:22.786Z,64.94
2018-12-26T03:26:56.451Z,65.09
2018-12-26T03:29:32.436Z,64.80
2018-12-26T03:32:05.610Z,65.01
2018-12-26T03:34:45.023Z,65.14
2018-12-26T03:37:11.296Z,65.19
2018-12-26T03:39:45.793Z,65.56
2018-12-26T03:42:18.802Z,65.65
2018-12-26T03:44:52.048Z,65.32
2018-12-26T03:47:26.397Z,65.48
2018-12-26T03:49:58.890Z,65.60
2018-12-26T03:52:30.197Z,65.91
2018-12-26T03:55:03.405Z,65.65
2018-12-26T03:57:36.993Z,65.33
2018-12-26T04:00:12.574Z,65.39
2018-12-26T04:02:45.204Z,65.40
2018-12-26T04:05:18.360Z,65.03
2018-12-26T04:07:51.087Z,64.86
2018-12-26T04:10:24.283Z,64.32
2018-12-26T04:12:59.746Z,64.36
2018-12-26T04:15:33.535Z,63.68
2018-12-26T04:18:14.879Z,63.80
2018-12-26T04:20:43.513Z,63.56
2018-12-26T04:23:14.960Z,63.46
2018-12-26T04:25:46.214Z,63.64
2018-12-26T04:28:18.995Z,63.31
2018-12-26T04:30:52.886Z,63.58
2018-12-26T04:33:29.697Z,63.69
2018-12-26T04:36:00.160Z,63.52
2018-12-26T04:38:31.333Z,63.45
2018-12-26T04:41:02.488Z,63.04
2018-12-26T04:43:34.704Z,62.99
2018-12-26T04:46:11.486Z,63.21
2018-12-26T04:48:42.718Z,62.86
2018-12-26T04:51:15.506Z,62.98
2018-12-26T04:53:47.926Z,62.97
2018-12-26T04:56:21.284Z,62.94
2018-12-26T04:58:52.398Z,62.86
2018-12-26T05:01:26.434Z,62.94
2018-12-26T05:03:59.560Z,63.26
2018-12-26T05:06:39.601Z,63.65
2018-12-26T05:09:06.058Z,63.49
2018-12-26T05:11:40.349Z,63.66
2018-12-26T05:14:13.329Z,63.23
2018-12-26T05:16:48.362Z,63.46
2018-12-26T05:19:19.651Z,63.87
2018-12-26T05:21:50.789Z,63.52
2018-12-26T05:24:23.757Z,63.65
2018-12-26T05:26:54.975Z,63.25
2018-12-26T05:29:27.314Z,63.94
2018-12-26T05:31:59.867Z,63.55
2018-12-26T05:34:31.042Z,63.30
2018-12-26T05:37:05.957Z,63.82
2018-12-26T05:39:37.502Z,63.55
2018-12-26T05:42:11.893Z,63.65
2018-12-26T05:44:44.798Z,63.77
2018-12-26T05:47:16.013Z,63.65
2018-12-26T05:49:48.710Z,63.97
2018-12-26T05:52:19.878Z,63.67
2018-12-26T05:54:51.046Z,63.55
2018-12-26T05:57:23.753Z,63.84
2018-12-26T05:59:54.918Z,64.22
2018-12-26T06:02:27.593Z,64.37
2018-12-26T06:05:00.584Z,65.03
2018-12-26T06:07:37.165Z,65.31
2018-12-26T06:10:06.475Z,64.71
2018-12-26T06:12:39.286Z,64.44
2018-12-26T06:15:15.663Z,64.22
2018-12-26T06:17:49.089Z,64.20
2018-12-26T06:20:21.741Z,64.68
2018-12-26T06:22:55.755Z,64.64
2018-12-26T06:25:30.857Z,64.28
2018-12-26T06:28:09.036Z,64.37
2018-12-26T06:30:41.427Z,64.16
2018-12-26T06:33:14.362Z,63.94
2018-12-26T06:35:47.398Z,63.92
2018-12-26T06:38:19.780Z,63.93
2018-12-26T06:40:52.445Z,63.66
2018-12-26T06:43:24.975Z,63.72
2018-12-26T06:45:58.818Z,63.64
2018-12-26T06:48:35.202Z,63.51
2018-12-26T06:51:08.719Z,63.15
2018-12-26T06:53:42.486Z,63.47
2018-12-26T06:56:16.782Z,62.90
2018-12-26T06:58:51.945Z,62.37
2018-12-26T07:01:27.232Z,62.19
2018-12-26T07:03:59.530Z,61.99
2018-12-26T07:06:35.498Z,61.71
2018-12-26T07:09:10.126Z,60.71
2018-12-26T07:11:46.594Z,59.02
2018-12-26T07:14:22.898Z,53.09
2018-12-26T07:16:56.163Z,47.44
2018-12-26T07:19:27.545Z,43.89
2018-12-26T07:21:58.617Z,39.77
2018-12-26T07:24:31.595Z,38.32
2018-12-26T07:27:02.576Z,35.04
2018-12-26T07:29:37.554Z,33.92
2018-12-26T07:32:08.547Z,33.78
2018-12-26T07:34:52.487Z,32.78
2018-12-26T07:37:38.803Z,31.36
2018-12-26T07:40:27.540Z,29.88
2018-12-26T07:43:38.100Z,29.61
2018-12-26T07:46:17.855Z,29.32
2018-12-26T07:48:59.634Z,27.42
2018-12-26T07:51:33.928Z,26.97
2018-12-26T07:54:24.315Z,26.83
2018-12-26T07:57:04.285Z,26.78
2018-12-26T07:59:39.279Z,24.59
2018-12-26T08:02:18.518Z,25.83
2018-12-26T08:05:12.428Z,23.75
2018-12-26T08:07:46.640Z,23.37
2018-12-26T08:10:22.051Z,22.67
2018-12-26T08:13:07.323Z,22.89
2018-12-26T08:15:53.554Z,23.83
2018-12-26T08:18:40.704Z,24.91
2018-12-26T08:21:33.853Z,25.76
2018-12-26T08:24:17.033Z,25.95
2018-12-26T08:27:07.930Z,26.87
2018-12-26T08:30:20.773Z,26.78
2018-12-26T08:33:09.707Z,27.36
2018-12-26T08:35:54.114Z,27.12
2018-12-26T08:38:28.744Z,27.28
2018-12-26T08:41:11.031Z,27.26
2018-12-26T08:44:02.435Z,27.17
2018-12-26T08:47:10.308Z,25.61
2018-12-26T08:49:37.267Z,25.16
2018-12-26T08:52:32.093Z,23.81
2018-12-26T08:55:22.382Z,24.85
2018-12-26T08:58:12.388Z,24.77
2018-12-26T09:00:54.192Z,25.90
2018-12-26T09:03:34.041Z,27.64
2018-12-26T09:06:08.308Z,27.42
2018-12-26T09:08:54.671Z,26.65
2018-12-26T09:11:44.630Z,29.08
2018-12-26T09:14:33.847Z,29.74
2018-12-26T09:17:24.878Z,31.58
2018-12-26T09:20:10.492Z,32.49
2018-12-26T09:22:45.452Z,35.51
2018-12-26T09:25:48.956Z,36.33
2018-12-26T09:28:30.753Z,36.39
2018-12-26T09:34:13.697Z,40.64
2018-12-26T09:36:41.570Z,43.14
2018-12-26T09:39:19.947Z,43.52
2018-12-26T09:42:03.538Z,43.74
2018-12-26T09:45:00.828Z,43.54
2018-12-26T09:47:47.718Z,45.36
2018-12-26T09:50:29.997Z,45.69
2018-12-26T09:53:07.785Z,45.71
2018-12-26T09:55:44.069Z,45.12
2018-12-26T09:58:20.947Z,45.12
2018-12-26T10:00:59.143Z,45.71
2018-12-26T10:03:43.844Z,45.71
2018-12-26T10:06:20.122Z,44.69
2018-12-26T10:08:56.318Z,43.23
2018-12-26T10:11:34.494Z,42.52
2018-12-26T10:14:17.317Z,42.24
2018-12-26T10:16:53.411Z,43.05
2018-12-26T10:19:31.413Z,44.06
2018-12-26T10:22:27.539Z,43.66
2018-12-26T10:25:04.036Z,42.60
2018-12-26T10:27:48.187Z,43.02
2018-12-26T10:30:34.533Z,40.13
2018-12-26T10:33:11.971Z,38.88
2018-12-26T10:35:47.485Z,38.28
2018-12-26T10:38:18.672Z,36.92
2018-12-26T10:41:18.820Z,35.55
2018-12-26T10:43:54.895Z,35.29
2018-12-26T10:46:32.554Z,39.03
2018-12-26T10:49:13.835Z,37.20
2018-12-26T10:51:52.756Z,37.76
2018-12-26T10:54:27.295Z,39.00
2018-12-26T10:57:04.382Z,38.54
2018-12-26T10:59:54.142Z,39.62
2018-12-26T11:02:33.981Z,38.37
2018-12-26T11:05:09.571Z,35.19
2018-12-26T11:07:44.491Z,31.59
2018-12-26T11:11:00.547Z,28.64
2018-12-26T11:13:38.006Z,28.17
2018-12-26T11:16:15.796Z,28.29
2018-12-26T11:18:50.057Z,27.50
2018-12-26T11:21:27.720Z,27.00
2018-12-26T11:24:04.498Z,24.89
2018-12-26T11:26:44.662Z,23.93
2018-12-26T11:29:22.266Z,24.44
2018-12-26T11:31:55.358Z,25.30
2018-12-26T11:34:38.564Z,24.63
2018-12-26T11:37:13.409Z,24.36
2018-12-26T11:39:55.557Z,24.74
2018-12-26T11:46:27.292Z,25.84
2018-12-26T11:48:57.571Z,28.56
2018-12-26T11:51:42.195Z,30.68
2018-12-26T11:54:13.342Z,32.72
2018-12-26T11:56:44.475Z,35.48
2018-12-26T11:59:15.526Z,37.49
2018-12-26T12:01:46.852Z,40.33
2018-12-26T12:04:17.947Z,40.08
2018-12-26T12:06:49.286Z,40.47
2018-12-26T12:09:20.572Z,39.31
2018-12-26T12:11:52.326Z,39.35
2018-12-26T12:14:24.837Z,40.35
2018-12-26T12:16:56.348Z,39.48
2018-12-26T12:19:27.617Z,41.01
2018-12-26T12:21:58.843Z,40.71
2018-12-26T12:24:29.823Z,41.71
2018-12-26T12:27:01.024Z,43.58
2018-12-26T12:29:36.019Z,43.58
2018-12-26T12:32:05.536Z,43.94
2018-12-26T12:34:36.776Z,45.57
2018-12-26T12:37:08.228Z,45.57
2018-12-26T12:39:39.718Z,45.83
2018-12-26T12:42:11.146Z,46.59
2018-12-26T12:44:42.571Z,46.80
2018-12-26T12:47:13.737Z,47.82
2018-12-26T12:49:45.121Z,47.42
2018-12-26T12:52:16.444Z,47.79
2018-12-26T12:54:48.510Z,47.25
2018-12-26T12:57:19.850Z,46.95
2018-12-26T12:59:51.443Z,46.66
2018-12-26T13:02:22.676Z,46.18
2018-12-26T13:04:54.178Z,46.96
2018-12-26T13:07:25.517Z,46.95
2018-12-26T13:09:56.649Z,47.14
2018-12-26T13:12:27.927Z,47.70
2018-12-26T13:14:59.226Z,47.96
2018-12-26T13:17:30.521Z,49.56
2018-12-26T13:20:01.840Z,49.56
2018-12-26T13:22:33.031Z,49.53
2018-12-26T13:25:04.478Z,49.97
2018-12-26T13:27:35.704Z,50.65
2018-12-26T13:30:08.536Z,50.61
2018-12-26T13:32:39.719Z,50.74
2018-12-26T13:35:10.979Z,51.59
2018-12-26T13:37:45.095Z,52.06
2018-12-26T13:40:16.287Z,52.15
2018-12-26T13:42:47.690Z,53.23
2018-12-26T13:45:18.871Z,53.84
2018-12-26T13:47:49.917Z,53.73
2018-12-26T13:50:21.201Z,53.69
2018-12-26T13:52:52.463Z,54.19
2018-12-26T13:55:23.633Z,54.85
2018-12-26T13:57:55.061Z,55.27
2018-12-26T14:00:26.285Z,55.76
2018-12-26T14:02:57.586Z,55.39
2018-12-26T14:05:30.195Z,56.33
2018-12-26T14:08:01.462Z,56.86
2018-12-26T14:10:32.654Z,56.87
2018-12-26T14:13:03.814Z,56.87
2018-12-26T14:15:35.071Z,57.60
2018-12-26T14:18:06.319Z,57.81
2018-12-26T14:20:37.504Z,58.47
2018-12-26T14:23:08.673Z,58.19
2018-12-26T14:25:39.930Z,59.03
2018-12-26T14:28:11.124Z,59.03
2018-12-26T14:30:42.449Z,59.29
2018-12-26T14:33:14.752Z,59.29
2018-12-26T14:35:52.265Z,59.33
2018-12-26T14:38:23.511Z,59.81
2018-12-26T14:40:54.844Z,59.00
2018-12-26T14:43:25.959Z,59.22
2018-12-26T14:45:57.255Z,59.75
2018-12-26T14:48:28.647Z,59.75
2018-12-26T14:50:59.686Z,60.34
2018-12-26T14:53:30.808Z,59.93
2018-12-26T14:56:02.099Z,59.93
2018-12-26T14:58:33.316Z,60.90
2018-12-26T15:01:04.766Z,61.10
2018-12-26T15:03:35.913Z,61.10
2018-12-26T15:06:07.251Z,61.36
2018-12-26T15:08:38.433Z,61.56
2018-12-26T15:11:09.611Z,61.50
2018-12-26T15:13:42.529Z,61.72
2018-12-26T15:16:13.820Z,60.96
2018-12-26T15:18:45.176Z,61.19
2018-12-26T15:21:16.497Z,60.70
2018-12-26T15:23:47.551Z,60.87
2018-12-26T15:26:18.876Z,60.87
2018-12-26T15:28:50.098Z,61.30
2018-12-26T15:31:21.487Z,61.48
2018-12-26T15:33:52.811Z,61.26
2018-12-26T15:36:24.181Z,60.64
2018-12-26T15:38:55.361Z,60.64
2018-12-26T15:41:26.656Z,60.89
2018-12-26T15:43:57.879Z,61.02
2018-12-26T15:46:29.097Z,60.90
2018-12-26T15:49:03.774Z,60.36
2018-12-26T15:51:35.060Z,60.64
2018-12-26T15:54:06.279Z,59.62
2018-12-26T15:56:38.629Z,59.62
2018-12-26T15:59:09.859Z,59.97
2018-12-26T16:01:41.248Z,59.57
2018-12-26T16:04:12.777Z,59.64
2018-12-26T16:06:43.880Z,59.64
2018-12-26T16:09:15.240Z,59.28
2018-12-26T16:11:46.555Z,59.18
2018-12-26T16:14:18.044Z,59.30
2018-12-26T16:16:49.161Z,59.15
2018-12-26T16:19:20.446Z,59.18
2018-12-26T16:21:51.653Z,59.18
2018-12-26T16:24:22.864Z,58.92
2018-12-26T16:26:54.073Z,58.75
2018-12-26T16:29:25.385Z,58.75
2018-12-26T16:31:56.615Z,59.18
2018-12-26T16:34:30.479Z,59.17
2018-12-26T16:37:02.813Z,58.93
2018-12-26T16:39:36.062Z,59.12
2018-12-26T16:42:07.420Z,59.12
2018-12-26T16:44:38.717Z,58.89
2018-12-26T16:47:09.887Z,58.99
2018-12-26T16:49:41.236Z,58.62
2018-12-26T16:52:12.483Z,58.30
2018-12-26T16:54:43.815Z,57.43
2018-12-26T16:57:15.040Z,56.97
2018-12-26T16:59:46.302Z,56.46
2018-12-26T17:02:17.580Z,55.74
2018-12-26T17:04:48.753Z,55.74
2018-12-26T17:07:19.984Z,56.47
2018-12-26T17:09:51.524Z,56.17
2018-12-26T17:12:22.722Z,55.74
2018-12-26T17:14:53.937Z,55.74
2018-12-26T17:17:25.192Z,54.48
2018-12-26T17:19:56.492Z,55.26
2018-12-26T17:22:27.815Z,55.56
2018-12-26T17:24:58.975Z,55.56
2018-12-26T17:27:30.204Z,55.15
2018-12-26T17:30:01.514Z,55.15
2018-12-26T17:32:32.739Z,54.79
2018-12-26T17:35:04.026Z,54.79
2018-12-26T17:37:35.283Z,55.18
2018-12-26T17:40:07.209Z,54.36
2018-12-26T17:42:38.522Z,54.36
2018-12-26T17:45:09.783Z,55.38
2018-12-26T17:47:41.022Z,55.22
2018-12-26T17:50:57.971Z,55.98
2018-12-26T17:54:12.720Z,55.98
2018-12-26T17:56:56.886Z,56.91
2018-12-26T17:59:39.551Z,56.91
2018-12-26T18:02:21.308Z,56.88
2018-12-26T18:04:52.668Z,56.28
2018-12-26T18:07:23.854Z,56.72
2018-12-26T18:09:54.983Z,56.72
2018-12-26T18:12:26.253Z,57.51
2018-12-26T18:14:59.790Z,57.60
2018-12-26T18:17:31.252Z,57.63
2018-12-26T18:20:02.515Z,57.63
2018-12-26T18:22:34.007Z,57.45
2018-12-26T18:25:05.492Z,57.57
2018-12-26T18:27:37.000Z,57.75
2018-12-26T18:30:12.115Z,57.60
2018-12-26T18:32:43.340Z,57.60
2018-12-26T18:35:14.637Z,57.39
2018-12-26T18:37:46.043Z,57.23
2018-12-26T18:40:17.371Z,57.39
2018-12-26T18:42:49.046Z,57.39
2018-12-26T18:45:20.314Z,56.66
2018-12-26T18:47:52.970Z,56.87
2018-12-26T18:50:24.181Z,56.87
2018-12-26T18:52:55.388Z,56.45
2018-12-26T18:55:26.593Z,56.30
2018-12-26T18:57:58.104Z,56.30
2018-12-26T19:00:29.614Z,56.01
2018-12-26T19:03:01.113Z,56.01
2018-12-26T19:05:32.243Z,56.37
2018-12-26T19:08:03.668Z,56.13
2018-12-26T19:10:34.906Z,56.53
2018-12-26T19:13:06.066Z,56.19
2018-12-26T19:15:37.312Z,56.19
2018-12-26T19:18:08.623Z,56.49
2018-12-26T19:20:39.896Z,56.07
2018-12-26T19:23:11.315Z,55.62
2018-12-26T19:25:43.583Z,56.79
2018-12-26T19:28:14.862Z,56.79
2018-12-26T19:30:46.002Z,56.65
2018-12-26T19:33:17.285Z,56.34
2018-12-26T19:35:48.486Z,56.59
2018-12-26T19:38:19.742Z,56.01
2018-12-26T19:40:51.019Z,56.01
2018-12-26T19:43:22.054Z,56.44
2018-12-26T19:45:53.705Z,56.44
2018-12-26T19:48:25.974Z,55.10
2018-12-26T19:50:57.315Z,55.29
2018-12-26T19:53:28.650Z,55.05
2018-12-26T19:56:00.062Z,55.05
2018-12-26T19:58:31.329Z,55.00
2018-12-26T20:01:02.505Z,55.54
2018-12-26T20:03:33.745Z,55.36
2018-12-26T20:06:05.117Z,54.82
2018-12-26T20:08:36.590Z,54.82
2018-12-26T20:11:07.755Z,54.18
2018-12-26T20:13:38.946Z,54.13
2018-12-26T20:16:12.273Z,54.13
2018-12-26T20:18:43.531Z,53.81
2018-12-26T20:21:14.751Z,53.83
2018-12-26T20:23:45.928Z,54.15
2018-12-26T20:26:17.154Z,54.15
2018-12-26T20:28:48.356Z,53.84
2018-12-26T20:31:19.887Z,53.92
2018-12-26T20:33:51.058Z,54.57
2018-12-26T20:36:22.372Z,53.57
2018-12-26T20:38:53.694Z,53.57
2018-12-26T20:41:24.910Z,54.42
2018-12-26T20:43:56.334Z,54.25
2018-12-26T20:46:27.552Z,54.73
2018-12-26T20:48:58.830Z,55.03
2018-12-26T20:51:30.148Z,55.03
2018-12-26T20:54:01.414Z,54.53
2018-12-26T20:56:32.718Z,54.53
2018-12-26T20:59:03.995Z,55.07
2018-12-26T21:01:35.133Z,54.98
2018-12-26T21:04:06.540Z,54.98
2018-12-26T21:06:37.755Z,55.25
2018-12-26T21:09:08.966Z,55.25
2018-12-26T21:11:40.093Z,55.71
2018-12-26T21:14:11.276Z,55.67
2018-12-26T21:16:42.658Z,55.67
2018-12-26T21:19:13.963Z,55.22
2018-12-26T21:21:45.183Z,55.46
2018-12-26T21:24:16.605Z,55.06
2018-12-26T21:26:47.811Z,55.06
2018-12-26T21:29:19.135Z,54.75
2018-12-26T21:31:50.473Z,54.85
2018-12-26T21:34:21.645Z,55.22
2018-12-26T21:36:52.908Z,55.22
2018-12-26T21:39:23.992Z,55.10
2018-12-26T21:41:55.190Z,55.97
2018-12-26T21:44:26.421Z,54.66
2018-12-26T21:46:57.735Z,54.83
2018-12-26T21:49:29.235Z,54.84
2018-12-26T21:52:01.476Z,54.84
2018-12-26T21:54:32.707Z,55.23
2018-12-26T21:57:04.026Z,54.69
2018-12-26T21:59:35.193Z,54.69
2018-12-26T22:02:06.307Z,55.27
2018-12-26T22:04:37.495Z,54.99
2018-12-26T22:07:08.614Z,54.78
2018-12-26T22:09:39.825Z,54.56
2018-12-26T22:12:10.930Z,54.56
2018-12-26T22:14:42.267Z,55.15
2018-12-26T22:17:13.575Z,55.15
2018-12-26T22:19:44.799Z,55.63
2018-12-26T22:22:16.024Z,55.63
2018-12-26T22:24:47.218Z,54.99
2018-12-26T22:27:18.542Z,55.51
2018-12-26T22:29:49.817Z,55.51
2018-12-26T22:32:20.968Z,55.21
2018-12-26T22:34:53.248Z,55.21
2018-12-26T22:37:24.576Z,55.12
2018-12-26T22:39:55.825Z,54.94
2018-12-26T22:42:27.117Z,54.94
2018-12-26T22:44:58.441Z,54.92
2018-12-26T22:47:29.758Z,54.92
2018-12-26T22:50:01.113Z,55.06
2018-12-26T22:52:33.418Z,54.80
2018-12-26T22:55:04.810Z,54.81
2018-12-26T22:57:35.895Z,54.97
2018-12-26T23:00:11.653Z,55.27
2018-12-26T23:02:42.864Z,54.28
2018-12-26T23:05:14.170Z,54.28
2018-12-26T23:07:45.594Z,54.48
2018-12-26T23:10:16.795Z,54.54
2018-12-26T23:12:49.118Z,54.43
2018-12-26T23:15:20.411Z,54.43
2018-12-26T23:17:51.659Z,53.65
2018-12-26T23:20:22.854Z,54.26
2018-12-26T23:22:53.944Z,53.57
2018-12-26T23:25:25.328Z,53.57
2018-12-26T23:27:56.717Z,54.41
2018-12-26T23:30:27.882Z,54.41
2018-12-26T23:32:59.087Z,53.53
2018-12-26T23:35:30.817Z,53.45
2018-12-26T23:38:03.002Z,53.45
2018-12-26T23:40:34.167Z,53.07
2018-12-26T23:43:05.266Z,53.36
2018-12-26T23:45:36.605Z,53.61
2018-12-26T23:48:07.783Z,53.76
2018-12-26T23:50:38.924Z,53.24
2018-12-26T23:53:10.125Z,53.24
2018-12-26T23:55:41.422Z,53.13
2018-12-26T23:58:12.474Z,53.13
